sensor_id;sensor_type;location;lat;lon;timestamp;temperature;humidity
16038;DHT22;8123;50.906;6.172;2023-07-20T00:01:21;16.90;99.90
16038;DHT22;8123;50.906;6.172;2023-07-20T00:03:47;16.80;99.90
16038;DHT22;8123;50.906;6.172;2023-07-20T00:06:23;16.70;99.90
16038;DHT22;8123;50.906;6.172;2023-07-20T00:08:51;16.70;99.90
16038;DHT22;8123;50.906;6.172;2023-07-20T00:11:17;16.70;99.90
16038;DHT22;8123;50.906;6.172;2023-07-20T00:13:42;16.60;99.90
16038;DHT22;8123;50.906;6.172;2023-07-20T00:16:08;16.60;99.90
16038;DHT22;8123;50.906;6.172;2023-07-20T00:18:34;16.60;99.90
16038;DHT22;8123;50.906;6.172;2023-07-20T00:20:59;16.50;99.90
16038;DHT22;8123;50.906;6.172;2023-07-20T00:23:26;16.40;99.90
16038;DHT22;8123;50.906;6.172;2023-07-20T00:25:51;16.40;99.90
16038;DHT22;8123;50.906;6.172;2023-07-20T00:28:17;16.30;99.90
16038;DHT22;8123;50.906;6.172;2023-07-20T00:30:43;16.30;99.90
16038;DHT22;8123;50.906;6.172;2023-07-20T00:33:12;16.20;99.90
16038;DHT22;8123;50.906;6.172;2023-07-20T00:35:38;16.20;99.90
16038;DHT22;8123;50.906;6.172;2023-07-20T00:38:04;16.10;99.90
16038;DHT22;8123;50.906;6.172;2023-07-20T00:40:40;16.10;99.90
16038;DHT22;8123;50.906;6.172;2023-07-20T00:43:07;16.10;99.90
16038;DHT22;8123;50.906;6.172;2023-07-20T00:45:34;16.10;99.90
16038;DHT22;8123;50.906;6.172;2023-07-20T00:48:01;16.10;99.90
16038;DHT22;8123;50.906;6.172;2023-07-20T00:50:28;16.20;99.90
16038;DHT22;8123;50.906;6.172;2023-07-20T00:52:55;16.10;99.90
16038;DHT22;8123;50.906;6.172;2023-07-20T00:55:23;16.10;99.90
16038;DHT22;8123;50.906;6.172;2023-07-20T00:57:50;16.10;99.90
16038;DHT22;8123;50.906;6.172;2023-07-20T01:00:16;16.00;99.90
16038;DHT22;8123;50.906;6.172;2023-07-20T01:02:42;16.00;99.90
16038;DHT22;8123;50.906;6.172;2023-07-20T01:05:08;15.90;99.90
16038;DHT22;8123;50.906;6.172;2023-07-20T01:07:38;15.90;99.90
16038;DHT22;8123;50.906;6.172;2023-07-20T01:10:36;15.90;99.90
16038;DHT22;8123;50.906;6.172;2023-07-20T01:13:06;15.80;99.90
16038;DHT22;8123;50.906;6.172;2023-07-20T01:15:34;15.70;99.90
16038;DHT22;8123;50.906;6.172;2023-07-20T01:17:59;15.70;99.90
16038;DHT22;8123;50.906;6.172;2023-07-20T01:20:28;15.70;99.90
16038;DHT22;8123;50.906;6.172;2023-07-20T01:33:36;15.60;99.90
16038;DHT22;8123;50.906;6.172;2023-07-20T01:36:03;15.60;99.90
16038;DHT22;8123;50.906;6.172;2023-07-20T01:38:29;15.50;99.90
16038;DHT22;8123;50.906;6.172;2023-07-20T01:40:55;15.50;99.90
16038;DHT22;8123;50.906;6.172;2023-07-20T01:43:21;15.50;99.90
16038;DHT22;8123;50.906;6.172;2023-07-20T01:45:47;15.50;99.90
16038;DHT22;8123;50.906;6.172;2023-07-20T01:48:13;15.40;99.90
16038;DHT22;8123;50.906;6.172;2023-07-20T01:50:38;15.40;99.90
16038;DHT22;8123;50.906;6.172;2023-07-20T01:53:04;15.40;99.90
16038;DHT22;8123;50.906;6.172;2023-07-20T01:55:29;15.40;99.90
16038;DHT22;8123;50.906;6.172;2023-07-20T01:57:55;15.40;99.90
16038;DHT22;8123;50.906;6.172;2023-07-20T02:00:21;15.40;99.90
16038;DHT22;8123;50.906;6.172;2023-07-20T02:02:52;15.40;99.90
16038;DHT22;8123;50.906;6.172;2023-07-20T02:05:18;15.50;99.90
16038;DHT22;8123;50.906;6.172;2023-07-20T02:07:43;15.50;99.90
16038;DHT22;8123;50.906;6.172;2023-07-20T02:10:09;15.60;99.90
16038;DHT22;8123;50.906;6.172;2023-07-20T02:12:35;15.60;99.90
16038;DHT22;8123;50.906;6.172;2023-07-20T02:15:02;15.70;99.90
16038;DHT22;8123;50.906;6.172;2023-07-20T02:17:28;15.80;99.90
16038;DHT22;8123;50.906;6.172;2023-07-20T02:19:54;15.80;99.90
16038;DHT22;8123;50.906;6.172;2023-07-20T02:22:20;15.90;99.90
16038;DHT22;8123;50.906;6.172;2023-07-20T02:24:47;16.00;99.90
16038;DHT22;8123;50.906;6.172;2023-07-20T02:27:12;16.00;99.90
16038;DHT22;8123;50.906;6.172;2023-07-20T02:29:40;16.00;99.90
16038;DHT22;8123;50.906;6.172;2023-07-20T02:32:06;16.10;99.90
16038;DHT22;8123;50.906;6.172;2023-07-20T02:34:32;16.10;99.90
16038;DHT22;8123;50.906;6.172;2023-07-20T02:36:58;16.10;99.90
16038;DHT22;8123;50.906;6.172;2023-07-20T02:39:29;16.10;99.90
16038;DHT22;8123;50.906;6.172;2023-07-20T02:41:54;16.20;99.90
16038;DHT22;8123;50.906;6.172;2023-07-20T02:44:20;16.20;99.90
16038;DHT22;8123;50.906;6.172;2023-07-20T02:46:46;16.20;99.90
16038;DHT22;8123;50.906;6.172;2023-07-20T02:49:12;16.20;99.90
16038;DHT22;8123;50.906;6.172;2023-07-20T02:51:37;16.20;99.90
16038;DHT22;8123;50.906;6.172;2023-07-20T02:54:03;16.20;99.90
16038;DHT22;8123;50.906;6.172;2023-07-20T02:56:29;16.20;99.90
16038;DHT22;8123;50.906;6.172;2023-07-20T02:58:54;16.20;99.90
16038;DHT22;8123;50.906;6.172;2023-07-20T03:01:20;16.20;99.90
16038;DHT22;8123;50.906;6.172;2023-07-20T03:03:46;16.10;99.90
16038;DHT22;8123;50.906;6.172;2023-07-20T03:06:15;16.10;99.90
16038;DHT22;8123;50.906;6.172;2023-07-20T03:08:44;16.10;99.90
16038;DHT22;8123;50.906;6.172;2023-07-20T03:11:13;16.10;99.90
16038;DHT22;8123;50.906;6.172;2023-07-20T03:13:40;16.00;99.90
16038;DHT22;8123;50.906;6.172;2023-07-20T03:16:06;16.00;99.90
16038;DHT22;8123;50.906;6.172;2023-07-20T03:18:37;15.90;99.90
16038;DHT22;8123;50.906;6.172;2023-07-20T03:21:03;15.90;99.90
16038;DHT22;8123;50.906;6.172;2023-07-20T03:23:29;15.80;99.90
16038;DHT22;8123;50.906;6.172;2023-07-20T03:25:54;15.80;99.90
16038;DHT22;8123;50.906;6.172;2023-07-20T03:28:20;15.80;99.90
16038;DHT22;8123;50.906;6.172;2023-07-20T03:30:46;15.70;99.90
16038;DHT22;8123;50.906;6.172;2023-07-20T03:33:12;15.70;99.90
16038;DHT22;8123;50.906;6.172;2023-07-20T03:35:37;15.70;99.90
16038;DHT22;8123;50.906;6.172;2023-07-20T03:38:03;15.60;99.90
16038;DHT22;8123;50.906;6.172;2023-07-20T03:40:29;15.60;99.90
16038;DHT22;8123;50.906;6.172;2023-07-20T03:42:55;15.50;99.90
16038;DHT22;8123;50.906;6.172;2023-07-20T03:45:20;15.50;99.90
16038;DHT22;8123;50.906;6.172;2023-07-20T03:47:49;15.50;99.90
16038;DHT22;8123;50.906;6.172;2023-07-20T03:50:15;15.60;99.90
16038;DHT22;8123;50.906;6.172;2023-07-20T03:52:40;15.60;99.90
16038;DHT22;8123;50.906;6.172;2023-07-20T03:55:06;15.60;99.90
16038;DHT22;8123;50.906;6.172;2023-07-20T03:57:32;15.60;99.90
16038;DHT22;8123;50.906;6.172;2023-07-20T03:59:58;15.70;99.90
16038;DHT22;8123;50.906;6.172;2023-07-20T04:02:24;15.70;99.90
16038;DHT22;8123;50.906;6.172;2023-07-20T04:04:51;15.70;99.90
16038;DHT22;8123;50.906;6.172;2023-07-20T04:07:16;15.70;99.90
16038;DHT22;8123;50.906;6.172;2023-07-20T04:09:42;15.70;99.90
16038;DHT22;8123;50.906;6.172;2023-07-20T04:12:08;15.70;99.90
16038;DHT22;8123;50.906;6.172;2023-07-20T04:14:33;15.70;99.90
16038;DHT22;8123;50.906;6.172;2023-07-20T04:16:59;15.70;99.90
16038;DHT22;8123;50.906;6.172;2023-07-20T04:19:26;15.70;99.90
16038;DHT22;8123;50.906;6.172;2023-07-20T04:21:51;15.80;99.90
16038;DHT22;8123;50.906;6.172;2023-07-20T04:24:17;15.80;99.90
16038;DHT22;8123;50.906;6.172;2023-07-20T04:26:42;15.80;99.90
16038;DHT22;8123;50.906;6.172;2023-07-20T04:29:08;15.80;99.90
16038;DHT22;8123;50.906;6.172;2023-07-20T04:31:34;15.90;99.90
16038;DHT22;8123;50.906;6.172;2023-07-20T04:34:00;15.90;99.90
16038;DHT22;8123;50.906;6.172;2023-07-20T04:36:26;15.90;99.90
16038;DHT22;8123;50.906;6.172;2023-07-20T04:38:52;15.90;99.90
16038;DHT22;8123;50.906;6.172;2023-07-20T04:41:17;15.90;99.90
16038;DHT22;8123;50.906;6.172;2023-07-20T04:43:43;15.90;99.90
16038;DHT22;8123;50.906;6.172;2023-07-20T04:46:10;15.90;99.90
16038;DHT22;8123;50.906;6.172;2023-07-20T04:48:36;15.90;99.90
16038;DHT22;8123;50.906;6.172;2023-07-20T04:51:02;16.00;99.90
16038;DHT22;8123;50.906;6.172;2023-07-20T04:53:28;16.00;99.90
16038;DHT22;8123;50.906;6.172;2023-07-20T04:55:54;16.20;99.90
16038;DHT22;8123;50.906;6.172;2023-07-20T04:58:21;16.10;99.90
16038;DHT22;8123;50.906;6.172;2023-07-20T05:00:48;16.10;99.90
16038;DHT22;8123;50.906;6.172;2023-07-20T05:03:14;16.20;99.90
16038;DHT22;8123;50.906;6.172;2023-07-20T05:05:39;16.10;99.90
16038;DHT22;8123;50.906;6.172;2023-07-20T05:08:05;16.10;99.90
16038;DHT22;8123;50.906;6.172;2023-07-20T05:10:31;16.10;99.90
16038;DHT22;8123;50.906;6.172;2023-07-20T05:12:58;16.10;99.90
16038;DHT22;8123;50.906;6.172;2023-07-20T05:15:23;16.10;99.90
16038;DHT22;8123;50.906;6.172;2023-07-20T05:17:49;16.20;99.90
16038;DHT22;8123;50.906;6.172;2023-07-20T05:20:15;16.20;99.90
16038;DHT22;8123;50.906;6.172;2023-07-20T05:22:41;16.10;99.90
16038;DHT22;8123;50.906;6.172;2023-07-20T05:25:10;16.20;99.90
16038;DHT22;8123;50.906;6.172;2023-07-20T05:27:37;16.30;99.90
16038;DHT22;8123;50.906;6.172;2023-07-20T05:30:04;16.40;99.90
16038;DHT22;8123;50.906;6.172;2023-07-20T05:32:30;16.40;99.90
16038;DHT22;8123;50.906;6.172;2023-07-20T05:34:55;16.40;99.90
16038;DHT22;8123;50.906;6.172;2023-07-20T05:37:21;16.50;99.90
16038;DHT22;8123;50.906;6.172;2023-07-20T05:39:47;16.50;99.90
16038;DHT22;8123;50.906;6.172;2023-07-20T05:42:12;16.50;99.90
16038;DHT22;8123;50.906;6.172;2023-07-20T05:44:39;16.60;99.90
16038;DHT22;8123;50.906;6.172;2023-07-20T05:47:05;16.60;99.90
16038;DHT22;8123;50.906;6.172;2023-07-20T05:49:30;16.60;99.90
16038;DHT22;8123;50.906;6.172;2023-07-20T05:51:56;16.70;99.90
16038;DHT22;8123;50.906;6.172;2023-07-20T05:54:24;16.70;99.90
16038;DHT22;8123;50.906;6.172;2023-07-20T05:56:49;16.70;99.90
16038;DHT22;8123;50.906;6.172;2023-07-20T05:59:15;16.70;99.90
16038;DHT22;8123;50.906;6.172;2023-07-20T06:01:43;16.70;99.90
16038;DHT22;8123;50.906;6.172;2023-07-20T06:04:09;16.60;99.90
16038;DHT22;8123;50.906;6.172;2023-07-20T06:06:34;16.60;99.90
16038;DHT22;8123;50.906;6.172;2023-07-20T06:09:00;16.60;99.90
16038;DHT22;8123;50.906;6.172;2023-07-20T06:11:30;16.70;99.90
16038;DHT22;8123;50.906;6.172;2023-07-20T06:13:56;16.70;99.90
16038;DHT22;8123;50.906;6.172;2023-07-20T06:16:22;16.70;99.90
16038;DHT22;8123;50.906;6.172;2023-07-20T06:18:48;16.70;99.90
16038;DHT22;8123;50.906;6.172;2023-07-20T06:21:13;16.90;99.90
16038;DHT22;8123;50.906;6.172;2023-07-20T06:23:39;17.00;99.90
16038;DHT22;8123;50.906;6.172;2023-07-20T06:26:06;17.00;99.90
16038;DHT22;8123;50.906;6.172;2023-07-20T06:28:32;17.10;99.90
16038;DHT22;8123;50.906;6.172;2023-07-20T06:31:02;17.10;99.90
16038;DHT22;8123;50.906;6.172;2023-07-20T06:33:28;17.30;99.90
16038;DHT22;8123;50.906;6.172;2023-07-20T06:35:53;17.40;99.90
16038;DHT22;8123;50.906;6.172;2023-07-20T06:38:19;17.60;99.90
16038;DHT22;8123;50.906;6.172;2023-07-20T06:40:48;17.70;99.90
16038;DHT22;8123;50.906;6.172;2023-07-20T06:43:14;17.80;99.90
16038;DHT22;8123;50.906;6.172;2023-07-20T06:45:40;17.80;99.90
16038;DHT22;8123;50.906;6.172;2023-07-20T06:48:06;17.80;99.90
16038;DHT22;8123;50.906;6.172;2023-07-20T06:50:32;17.70;99.90
16038;DHT22;8123;50.906;6.172;2023-07-20T06:52:58;17.60;99.90
16038;DHT22;8123;50.906;6.172;2023-07-20T06:55:25;17.60;99.90
16038;DHT22;8123;50.906;6.172;2023-07-20T06:57:51;17.60;99.90
16038;DHT22;8123;50.906;6.172;2023-07-20T07:00:17;17.50;99.90
16038;DHT22;8123;50.906;6.172;2023-07-20T07:02:45;17.70;99.90
16038;DHT22;8123;50.906;6.172;2023-07-20T07:05:11;18.00;99.90
16038;DHT22;8123;50.906;6.172;2023-07-20T07:07:39;18.10;99.90
16038;DHT22;8123;50.906;6.172;2023-07-20T07:10:05;18.10;99.90
16038;DHT22;8123;50.906;6.172;2023-07-20T07:12:34;17.50;99.90
16038;DHT22;8123;50.906;6.172;2023-07-20T07:15:02;17.80;99.90
16038;DHT22;8123;50.906;6.172;2023-07-20T07:17:28;17.80;99.90
16038;DHT22;8123;50.906;6.172;2023-07-20T07:19:55;17.80;99.90
16038;DHT22;8123;50.906;6.172;2023-07-20T07:22:21;17.80;99.90
16038;DHT22;8123;50.906;6.172;2023-07-20T07:24:48;17.90;99.90
16038;DHT22;8123;50.906;6.172;2023-07-20T07:27:13;18.00;99.90
16038;DHT22;8123;50.906;6.172;2023-07-20T07:29:42;18.00;99.90
16038;DHT22;8123;50.906;6.172;2023-07-20T07:32:09;18.00;99.90
16038;DHT22;8123;50.906;6.172;2023-07-20T07:34:35;18.00;99.90
16038;DHT22;8123;50.906;6.172;2023-07-20T07:37:01;18.10;99.90
16038;DHT22;8123;50.906;6.172;2023-07-20T07:39:27;18.20;99.90
16038;DHT22;8123;50.906;6.172;2023-07-20T07:41:56;18.40;99.90
16038;DHT22;8123;50.906;6.172;2023-07-20T07:44:22;18.40;99.90
16038;DHT22;8123;50.906;6.172;2023-07-20T07:46:48;18.50;99.90
16038;DHT22;8123;50.906;6.172;2023-07-20T07:49:14;18.30;99.90
16038;DHT22;8123;50.906;6.172;2023-07-20T07:51:40;18.30;99.90
16038;DHT22;8123;50.906;6.172;2023-07-20T07:54:06;18.30;99.90
16038;DHT22;8123;50.906;6.172;2023-07-20T07:56:31;18.20;99.90
16038;DHT22;8123;50.906;6.172;2023-07-20T07:58:57;18.20;99.90
16038;DHT22;8123;50.906;6.172;2023-07-20T08:01:23;18.30;99.90
16038;DHT22;8123;50.906;6.172;2023-07-20T08:03:51;18.30;99.90
16038;DHT22;8123;50.906;6.172;2023-07-20T08:06:18;18.40;99.90
16038;DHT22;8123;50.906;6.172;2023-07-20T08:08:44;18.60;99.90
16038;DHT22;8123;50.906;6.172;2023-07-20T08:11:11;18.80;99.90
16038;DHT22;8123;50.906;6.172;2023-07-20T08:13:37;18.90;99.90
16038;DHT22;8123;50.906;6.172;2023-07-20T08:16:03;19.10;99.90
16038;DHT22;8123;50.906;6.172;2023-07-20T08:18:29;19.10;99.90
16038;DHT22;8123;50.906;6.172;2023-07-20T08:20:55;18.80;99.90
16038;DHT22;8123;50.906;6.172;2023-07-20T08:23:21;18.80;99.90
16038;DHT22;8123;50.906;6.172;2023-07-20T08:25:47;18.80;99.90
16038;DHT22;8123;50.906;6.172;2023-07-20T08:28:14;18.90;99.90
16038;DHT22;8123;50.906;6.172;2023-07-20T08:30:46;18.90;99.90
16038;DHT22;8123;50.906;6.172;2023-07-20T08:33:16;19.10;99.90
16038;DHT22;8123;50.906;6.172;2023-07-20T08:35:45;19.20;99.90
16038;DHT22;8123;50.906;6.172;2023-07-20T08:38:10;19.30;99.90
16038;DHT22;8123;50.906;6.172;2023-07-20T08:40:50;19.30;99.90
16038;DHT22;8123;50.906;6.172;2023-07-20T08:43:16;19.20;99.90
16038;DHT22;8123;50.906;6.172;2023-07-20T08:45:44;19.10;99.90
16038;DHT22;8123;50.906;6.172;2023-07-20T08:48:11;19.10;99.90
16038;DHT22;8123;50.906;6.172;2023-07-20T08:50:38;19.00;99.90
16038;DHT22;8123;50.906;6.172;2023-07-20T08:53:04;18.90;99.90
16038;DHT22;8123;50.906;6.172;2023-07-20T08:55:31;19.10;99.90
16038;DHT22;8123;50.906;6.172;2023-07-20T08:57:59;19.20;99.90
16038;DHT22;8123;50.906;6.172;2023-07-20T09:00:27;19.40;97.20
16038;DHT22;8123;50.906;6.172;2023-07-20T09:02:55;19.50;94.40
16038;DHT22;8123;50.906;6.172;2023-07-20T09:05:23;19.70;98.30
16038;DHT22;8123;50.906;6.172;2023-07-20T09:07:51;19.70;99.90
16038;DHT22;8123;50.906;6.172;2023-07-20T09:10:17;19.60;96.10
16038;DHT22;8123;50.906;6.172;2023-07-20T09:12:43;19.50;94.30
16038;DHT22;8123;50.906;6.172;2023-07-20T09:15:11;19.50;95.40
16038;DHT22;8123;50.906;6.172;2023-07-20T09:17:37;19.60;96.20
16038;DHT22;8123;50.906;6.172;2023-07-20T09:20:07;19.70;91.70
16038;DHT22;8123;50.906;6.172;2023-07-20T09:22:37;19.70;90.00
16038;DHT22;8123;50.906;6.172;2023-07-20T09:25:11;19.80;91.90
16038;DHT22;8123;50.906;6.172;2023-07-20T09:27:40;19.80;93.60
16038;DHT22;8123;50.906;6.172;2023-07-20T09:30:07;19.60;87.20
16038;DHT22;8123;50.906;6.172;2023-07-20T09:32:49;19.80;91.60
16038;DHT22;8123;50.906;6.172;2023-07-20T09:35:21;19.90;89.10
16038;DHT22;8123;50.906;6.172;2023-07-20T09:38:00;20.20;56.00
16038;DHT22;8123;50.906;6.172;2023-07-20T09:40:27;20.30;59.90
16038;DHT22;8123;50.906;6.172;2023-07-20T09:42:53;20.30;60.50
16038;DHT22;8123;50.906;6.172;2023-07-20T09:45:57;20.70;57.70
16038;DHT22;8123;50.906;6.172;2023-07-20T09:48:24;20.50;56.60
16038;DHT22;8123;50.906;6.172;2023-07-20T09:50:51;20.30;59.90
16038;DHT22;8123;50.906;6.172;2023-07-20T09:53:17;20.10;68.40
16038;DHT22;8123;50.906;6.172;2023-07-20T09:55:47;20.00;74.90
16038;DHT22;8123;50.906;6.172;2023-07-20T09:58:14;20.00;76.00
16038;DHT22;8123;50.906;6.172;2023-07-20T10:00:43;20.00;79.90
16038;DHT22;8123;50.906;6.172;2023-07-20T10:03:16;20.10;73.20
16038;DHT22;8123;50.906;6.172;2023-07-20T10:05:47;20.20;70.90
16038;DHT22;8123;50.906;6.172;2023-07-20T10:08:16;20.30;48.70
16038;DHT22;8123;50.906;6.172;2023-07-20T10:10:42;20.30;51.80
16038;DHT22;8123;50.906;6.172;2023-07-20T10:13:17;20.40;51.90
16038;DHT22;8123;50.906;6.172;2023-07-20T10:15:47;20.70;50.80
16038;DHT22;8123;50.906;6.172;2023-07-20T10:18:21;20.70;46.90
16038;DHT22;8123;50.906;6.172;2023-07-20T10:20:51;20.60;42.10
16038;DHT22;8123;50.906;6.172;2023-07-20T10:23:17;20.70;44.10
16038;DHT22;8123;50.906;6.172;2023-07-20T10:25:43;20.80;41.60
16038;DHT22;8123;50.906;6.172;2023-07-20T10:28:10;20.70;43.10
16038;DHT22;8123;50.906;6.172;2023-07-20T10:30:37;20.70;43.10
16038;DHT22;8123;50.906;6.172;2023-07-20T10:33:04;20.80;42.60
16038;DHT22;8123;50.906;6.172;2023-07-20T10:35:30;20.80;36.10
16038;DHT22;8123;50.906;6.172;2023-07-20T10:38:03;20.90;38.70
16038;DHT22;8123;50.906;6.172;2023-07-20T10:40:38;21.00;35.90
16038;DHT22;8123;50.906;6.172;2023-07-20T10:43:05;21.00;35.40
16038;DHT22;8123;50.906;6.172;2023-07-20T10:48:20;21.10;35.20
16038;DHT22;8123;50.906;6.172;2023-07-20T10:51:10;20.80;35.00
16038;DHT22;8123;50.906;6.172;2023-07-20T10:53:36;20.70;33.80
16038;DHT22;8123;50.906;6.172;2023-07-20T10:56:19;20.80;33.90
16038;DHT22;8123;50.906;6.172;2023-07-20T10:58:45;21.00;28.80
16038;DHT22;8123;50.906;6.172;2023-07-20T11:01:16;21.10;28.30
16038;DHT22;8123;50.906;6.172;2023-07-20T11:03:42;21.20;24.40
16038;DHT22;8123;50.906;6.172;2023-07-20T11:08:55;21.30;26.70
16038;DHT22;8123;50.906;6.172;2023-07-20T11:11:30;21.30;22.60
16038;DHT22;8123;50.906;6.172;2023-07-20T11:14:03;21.30;23.20
16038;DHT22;8123;50.906;6.172;2023-07-20T11:16:43;21.30;24.60
16038;DHT22;8123;50.906;6.172;2023-07-20T11:19:20;21.30;24.80
16038;DHT22;8123;50.906;6.172;2023-07-20T11:21:50;21.20;26.60
16038;DHT22;8123;50.906;6.172;2023-07-20T11:24:17;21.40;26.40
16038;DHT22;8123;50.906;6.172;2023-07-20T11:27:01;21.40;24.00
16038;DHT22;8123;50.906;6.172;2023-07-20T11:29:27;21.50;19.20
16038;DHT22;8123;50.906;6.172;2023-07-20T11:31:53;21.60;20.80
16038;DHT22;8123;50.906;6.172;2023-07-20T11:34:20;21.70;23.70
16038;DHT22;8123;50.906;6.172;2023-07-20T11:36:49;21.80;23.30
16038;DHT22;8123;50.906;6.172;2023-07-20T11:39:19;21.90;18.40
16038;DHT22;8123;50.906;6.172;2023-07-20T11:44:13;22.00;16.60
16038;DHT22;8123;50.906;6.172;2023-07-20T11:46:41;22.00;14.40
16038;DHT22;8123;50.906;6.172;2023-07-20T11:49:08;22.10;14.80
16038;DHT22;8123;50.906;6.172;2023-07-20T11:51:34;22.10;12.70
16038;DHT22;8123;50.906;6.172;2023-07-20T11:54:02;22.10;14.50
16038;DHT22;8123;50.906;6.172;2023-07-20T11:56:28;22.10;14.10
16038;DHT22;8123;50.906;6.172;2023-07-20T11:59:00;22.00;12.20
16038;DHT22;8123;50.906;6.172;2023-07-20T12:01:28;21.80;16.40
16038;DHT22;8123;50.906;6.172;2023-07-20T12:03:57;21.90;21.00
16038;DHT22;8123;50.906;6.172;2023-07-20T12:06:24;22.00;19.20
16038;DHT22;8123;50.906;6.172;2023-07-20T12:08:53;22.00;17.30
16038;DHT22;8123;50.906;6.172;2023-07-20T12:11:39;22.10;13.20
16038;DHT22;8123;50.906;6.172;2023-07-20T12:14:08;22.30;12.80
16038;DHT22;8123;50.906;6.172;2023-07-20T12:16:35;22.40;11.10
16038;DHT22;8123;50.906;6.172;2023-07-20T12:19:06;22.10;12.60
16038;DHT22;8123;50.906;6.172;2023-07-20T12:21:33;22.20;13.00
16038;DHT22;8123;50.906;6.172;2023-07-20T12:23:59;22.10;12.80
16038;DHT22;8123;50.906;6.172;2023-07-20T12:26:25;22.20;13.10
16038;DHT22;8123;50.906;6.172;2023-07-20T12:28:52;22.20;13.90
16038;DHT22;8123;50.906;6.172;2023-07-20T12:31:18;22.20;11.90
16038;DHT22;8123;50.906;6.172;2023-07-20T12:33:44;22.20;13.00
16038;DHT22;8123;50.906;6.172;2023-07-20T12:36:10;22.20;14.90
16038;DHT22;8123;50.906;6.172;2023-07-20T12:38:36;22.30;12.70
16038;DHT22;8123;50.906;6.172;2023-07-20T12:41:02;22.30;12.00
16038;DHT22;8123;50.906;6.172;2023-07-20T12:43:28;22.30;12.90
16038;DHT22;8123;50.906;6.172;2023-07-20T12:45:54;22.50;12.20
16038;DHT22;8123;50.906;6.172;2023-07-20T12:48:20;22.60;10.90
16038;DHT22;8123;50.906;6.172;2023-07-20T12:50:46;22.50;12.50
16038;DHT22;8123;50.906;6.172;2023-07-20T12:53:12;22.60;11.10
16038;DHT22;8123;50.906;6.172;2023-07-20T12:55:38;22.20;11.10
16038;DHT22;8123;50.906;6.172;2023-07-20T12:58:04;22.20;11.70
16038;DHT22;8123;50.906;6.172;2023-07-20T13:00:30;22.30;13.40
16038;DHT22;8123;50.906;6.172;2023-07-20T13:02:57;22.40;12.40
16038;DHT22;8123;50.906;6.172;2023-07-20T13:05:23;22.30;11.30
16038;DHT22;8123;50.906;6.172;2023-07-20T13:07:49;22.40;13.20
16038;DHT22;8123;50.906;6.172;2023-07-20T13:10:15;22.40;10.00
16038;DHT22;8123;50.906;6.172;2023-07-20T13:12:40;22.50;9.00
16038;DHT22;8123;50.906;6.172;2023-07-20T13:15:07;22.50;8.30
16038;DHT22;8123;50.906;6.172;2023-07-20T13:17:37;22.40;7.30
16038;DHT22;8123;50.906;6.172;2023-07-20T13:20:05;22.40;8.90
16038;DHT22;8123;50.906;6.172;2023-07-20T13:22:31;22.40;6.20
16038;DHT22;8123;50.906;6.172;2023-07-20T13:24:57;22.40;4.50
16038;DHT22;8123;50.906;6.172;2023-07-20T13:27:23;22.50;4.40
16038;DHT22;8123;50.906;6.172;2023-07-20T13:29:48;22.70;6.20
16038;DHT22;8123;50.906;6.172;2023-07-20T13:32:15;22.80;2.60
16038;DHT22;8123;50.906;6.172;2023-07-20T13:34:40;22.80;2.20
16038;DHT22;8123;50.906;6.172;2023-07-20T13:37:06;23.00;2.60
16038;DHT22;8123;50.906;6.172;2023-07-20T13:39:33;23.20;1.00
16038;DHT22;8123;50.906;6.172;2023-07-20T13:41:58;23.00;1.00
16038;DHT22;8123;50.906;6.172;2023-07-20T13:44:27;22.90;1.00
16038;DHT22;8123;50.906;6.172;2023-07-20T13:46:52;22.90;1.00
16038;DHT22;8123;50.906;6.172;2023-07-20T13:49:18;22.80;1.00
16038;DHT22;8123;50.906;6.172;2023-07-20T13:51:44;22.90;1.00
16038;DHT22;8123;50.906;6.172;2023-07-20T13:54:10;22.90;1.00
16038;DHT22;8123;50.906;6.172;2023-07-20T13:56:37;22.90;1.00
16038;DHT22;8123;50.906;6.172;2023-07-20T13:59:02;22.90;1.00
16038;DHT22;8123;50.906;6.172;2023-07-20T14:01:28;23.00;1.00
16038;DHT22;8123;50.906;6.172;2023-07-20T14:03:55;23.30;1.00
16038;DHT22;8123;50.906;6.172;2023-07-20T14:06:30;23.30;1.00
16038;DHT22;8123;50.906;6.172;2023-07-20T14:08:56;23.40;1.00
16038;DHT22;8123;50.906;6.172;2023-07-20T14:11:23;23.40;1.00
16038;DHT22;8123;50.906;6.172;2023-07-20T14:13:49;23.40;1.00
16038;DHT22;8123;50.906;6.172;2023-07-20T14:16:15;23.10;1.00
16038;DHT22;8123;50.906;6.172;2023-07-20T14:18:41;23.00;1.00
16038;DHT22;8123;50.906;6.172;2023-07-20T14:21:06;22.80;1.00
16038;DHT22;8123;50.906;6.172;2023-07-20T14:23:32;22.80;1.00
16038;DHT22;8123;50.906;6.172;2023-07-20T14:25:58;22.80;1.00
16038;DHT22;8123;50.906;6.172;2023-07-20T14:28:24;22.80;1.00
16038;DHT22;8123;50.906;6.172;2023-07-20T14:30:50;22.60;1.00
16038;DHT22;8123;50.906;6.172;2023-07-20T14:33:15;22.50;1.00
16038;DHT22;8123;50.906;6.172;2023-07-20T14:35:41;22.60;1.00
16038;DHT22;8123;50.906;6.172;2023-07-20T14:38:07;22.70;1.00
16038;DHT22;8123;50.906;6.172;2023-07-20T14:40:32;22.80;1.00
16038;DHT22;8123;50.906;6.172;2023-07-20T14:42:58;22.80;1.00
16038;DHT22;8123;50.906;6.172;2023-07-20T14:45:27;22.80;1.00
16038;DHT22;8123;50.906;6.172;2023-07-20T14:47:52;22.70;1.00
16038;DHT22;8123;50.906;6.172;2023-07-20T14:50:19;22.80;1.00
16038;DHT22;8123;50.906;6.172;2023-07-20T14:52:45;22.90;1.00
16038;DHT22;8123;50.906;6.172;2023-07-20T14:55:11;22.90;1.00
16038;DHT22;8123;50.906;6.172;2023-07-20T14:57:36;23.20;1.00
16038;DHT22;8123;50.906;6.172;2023-07-20T15:00:03;23.20;1.00
16038;DHT22;8123;50.906;6.172;2023-07-20T15:02:33;23.10;1.00
16038;DHT22;8123;50.906;6.172;2023-07-20T15:04:59;23.10;1.00
16038;DHT22;8123;50.906;6.172;2023-07-20T15:07:25;23.20;1.00
16038;DHT22;8123;50.906;6.172;2023-07-20T15:09:51;23.40;1.00
16038;DHT22;8123;50.906;6.172;2023-07-20T15:12:17;23.50;1.00
16038;DHT22;8123;50.906;6.172;2023-07-20T15:14:43;23.40;1.00
16038;DHT22;8123;50.906;6.172;2023-07-20T15:17:09;23.40;1.00
16038;DHT22;8123;50.906;6.172;2023-07-20T15:19:35;23.40;1.00
16038;DHT22;8123;50.906;6.172;2023-07-20T15:22:04;23.30;1.00
16038;DHT22;8123;50.906;6.172;2023-07-20T15:24:32;23.30;1.00
16038;DHT22;8123;50.906;6.172;2023-07-20T15:26:58;23.30;1.00
16038;DHT22;8123;50.906;6.172;2023-07-20T15:29:24;23.20;1.00
16038;DHT22;8123;50.906;6.172;2023-07-20T15:31:50;23.30;1.00
16038;DHT22;8123;50.906;6.172;2023-07-20T15:34:16;23.40;1.00
16038;DHT22;8123;50.906;6.172;2023-07-20T15:36:41;23.60;1.00
16038;DHT22;8123;50.906;6.172;2023-07-20T15:39:08;23.70;1.00
16038;DHT22;8123;50.906;6.172;2023-07-20T15:41:34;23.80;1.00
16038;DHT22;8123;50.906;6.172;2023-07-20T15:44:00;23.90;1.00
16038;DHT22;8123;50.906;6.172;2023-07-20T15:49:04;24.20;1.00
16038;DHT22;8123;50.906;6.172;2023-07-20T15:51:30;24.10;1.00
16038;DHT22;8123;50.906;6.172;2023-07-20T15:53:55;24.00;1.00
16038;DHT22;8123;50.906;6.172;2023-07-20T15:56:21;24.00;1.00
16038;DHT22;8123;50.906;6.172;2023-07-20T15:58:46;24.10;1.00
16038;DHT22;8123;50.906;6.172;2023-07-20T16:01:12;24.00;1.00
16038;DHT22;8123;50.906;6.172;2023-07-20T16:03:38;23.90;1.00
16038;DHT22;8123;50.906;6.172;2023-07-20T16:06:04;23.80;1.00
16038;DHT22;8123;50.906;6.172;2023-07-20T16:08:30;23.80;1.00
16038;DHT22;8123;50.906;6.172;2023-07-20T16:10:56;23.70;1.00